Time;durP1;ratioP1;P1;durP2;ratioP2;P2;SDS_P1;SDS_P2;PMS_P1;PMS_P2;Temp;Humidity;BMP_temperature;BMP_pressure;BME280_temperature;BME280_humidity;BME280_pressure;Samples;Min_cycle;Max_cycle;Signal;HPM_P1;HPM_P2
2024/04/15 00:01:11;;;;;;;28.67;21.88;;;14.60;99.90;;;;;;5366180;26;20008;-84
2024/04/15 00:03:37;;;;;;;27.83;22.45;;;14.60;99.90;;;;;;5353099;26;20014;-83
2024/04/15 00:06:06;;;;;;;24.23;21.80;;;14.60;99.90;;;;;;5384302;26;20007;-83
2024/04/15 00:08:32;;;;;;;29.55;22.60;;;14.60;99.90;;;;;;5385796;26;19999;-84
2024/04/15 00:11:03;;;;;;;27.63;22.20;;;14.60;99.90;;;;;;5370161;26;20084;-84
2024/04/15 00:13:29;;;;;;;23.17;20.95;;;14.60;99.90;;;;;;5351019;26;20050;-84
2024/04/15 00:15:57;;;;;;;29.20;21.88;;;14.60;99.90;;;;;;5350957;26;20059;-83
2024/04/15 00:18:25;;;;;;;27.80;21.27;;;14.60;99.90;;;;;;5350403;26;20012;-83
2024/04/15 00:20:59;;;;;;;28.95;21.23;;;14.60;99.90;;;;;;5365491;26;20328;-83
2024/04/15 00:23:27;;;;;;;23.65;20.92;;;14.60;99.90;;;;;;5388898;26;20015;-84
2024/04/15 00:25:56;;;;;;;23.02;20.02;;;14.70;99.90;;;;;;5389398;26;20003;-84
2024/04/15 00:28:23;;;;;;;22.02;19.40;;;14.80;99.90;;;;;;5389338;26;20082;-83
2024/04/15 00:30:49;;;;;;;25.50;20.67;;;14.80;99.90;;;;;;5375208;26;20004;-84
2024/04/15 00:33:17;;;;;;;25.05;20.27;;;14.80;99.90;;;;;;5354198;26;20012;-83
2024/04/15 00:35:45;;;;;;;23.88;20.58;;;14.80;99.90;;;;;;5354105;26;20073;-84
2024/04/15 00:38:12;;;;;;;25.15;20.27;;;14.80;99.90;;;;;;5353551;26;20442;-84
2024/04/15 00:40:39;;;;;;;22.67;20.58;;;14.80;99.90;;;;;;5394190;26;20003;-84
2024/04/15 00:43:07;;;;;;;27.70;21.02;;;14.80;99.90;;;;;;5386950;26;20477;-84
2024/04/15 00:45:34;;;;;;;21.80;19.65;;;14.80;99.90;;;;;;5388309;26;19995;-83
2024/04/15 00:48:03;;;;;;;22.13;20.10;;;14.90;99.90;;;;;;5388627;26;20003;-84
2024/04/15 00:50:32;;;;;;;22.42;20.13;;;14.90;99.90;;;;;;5380140;26;20438;-83
2024/04/15 00:53:01;;;;;;;23.23;20.73;;;14.80;99.90;;;;;;5350729;26;20011;-83
2024/04/15 00:55:32;;;;;;;22.92;20.33;;;14.80;99.90;;;;;;5319202;26;20005;-83
2024/04/15 00:58:00;;;;;;;26.20;20.48;;;14.70;99.90;;;;;;5348067;26;20001;-84
2024/04/15 01:00:27;;;;;;;23.42;19.95;;;14.70;99.90;;;;;;5363321;26;20453;-83
2024/04/15 01:02:55;;;;;;;22.08;19.77;;;14.60;99.90;;;;;;5388557;26;20014;-83
2024/04/15 01:05:22;;;;;;;21.17;19.17;;;14.60;99.90;;;;;;5388613;26;20333;-83
2024/04/15 01:07:49;;;;;;;21.75;19.65;;;14.60;99.90;;;;;;5388587;26;20586;-83
2024/04/15 01:10:16;;;;;;;21.85;19.33;;;14.50;99.90;;;;;;5413132;26;20024;-83
2024/04/15 01:12:43;;;;;;;21.73;19.35;;;14.50;99.90;;;;;;5353815;26;20000;-84
2024/04/15 01:15:09;;;;;;;21.35;19.10;;;14.40;99.90;;;;;;5353300;26;19996;-83
2024/04/15 01:17:36;;;;;;;21.95;18.83;;;14.40;99.90;;;;;;5353311;26;20024;-83
2024/04/15 01:20:02;;;;;;;20.38;18.38;;;14.40;99.90;;;;;;5353067;26;20000;-83
2024/04/15 01:22:40;;;;;;;21.98;19.35;;;14.30;99.90;;;;;;5353167;26;20459;-84
2024/04/15 01:25:06;;;;;;;20.25;18.33;;;14.20;99.90;;;;;;5353404;26;20019;-83
2024/04/15 01:27:33;;;;;;;20.83;18.70;;;14.20;99.90;;;;;;5353476;26;20004;-84
2024/04/15 01:30:00;;;;;;;23.67;19.42;;;14.20;99.90;;;;;;5353442;26;20000;-83
2024/04/15 01:32:26;;;;;;;22.13;19.73;;;14.20;99.90;;;;;;5387947;26;19995;-83
2024/04/15 01:34:52;;;;;;;20.77;18.63;;;14.20;99.90;;;;;;5388314;26;19999;-84
2024/04/15 01:37:19;;;;;;;21.13;18.77;;;14.20;99.90;;;;;;5388269;26;20018;-84
2024/04/15 01:39:46;;;;;;;20.88;18.67;;;14.10;99.90;;;;;;5387968;26;20011;-83
2024/04/15 01:42:12;;;;;;;20.67;18.58;;;14.10;99.90;;;;;;5388469;26;20004;-84
2024/04/15 01:44:38;;;;;;;20.83;18.67;;;14.10;99.90;;;;;;5388199;26;20433;-83
2024/04/15 01:47:05;;;;;;;20.63;18.83;;;14.10;99.90;;;;;;5388495;26;20003;-84
2024/04/15 01:49:31;;;;;;;20.60;18.63;;;14.10;99.90;;;;;;5387969;26;20004;-84
2024/04/15 01:51:58;;;;;;;21.52;19.40;;;14.10;99.90;;;;;;5359828;26;20472;-83
2024/04/15 01:54:25;;;;;;;20.88;18.60;;;14.10;99.90;;;;;;5382558;26;20068;-83
2024/04/15 01:56:51;;;;;;;21.98;19.67;;;14.10;99.90;;;;;;5383532;26;20018;-83
2024/04/15 01:59:18;;;;;;;22.15;19.65;;;14.00;99.90;;;;;;5388233;26;19999;-84
2024/04/15 02:01:46;;;;;;;29.17;23.42;;;13.90;99.90;;;;;;5388746;26;20155;-84
2024/04/15 02:04:13;;;;;;;24.67;21.17;;;13.90;99.90;;;;;;5388110;26;20321;-84
2024/04/15 02:06:39;;;;;;;21.45;19.35;;;13.80;99.90;;;;;;5388508;26;20003;-84
2024/04/15 02:09:06;;;;;;;21.85;19.60;;;13.70;99.90;;;;;;5389598;26;20031;-84
2024/04/15 02:11:33;;;;;;;27.58;20.98;;;13.60;99.90;;;;;;5366130;26;20019;-83
2024/04/15 02:13:59;;;;;;;22.08;19.58;;;13.60;99.90;;;;;;5352853;26;20004;-84
2024/04/15 02:16:26;;;;;;;22.08;19.63;;;13.70;99.90;;;;;;5352830;26;20004;-84
2024/04/15 02:18:53;;;;;;;22.67;20.42;;;13.60;99.90;;;;;;5353062;26;20004;-84
2024/04/15 02:21:19;;;;;;;27.73;19.40;;;13.60;99.90;;;;;;5352696;26;20015;-83
2024/04/15 02:23:49;;;;;;;23.45;20.70;;;13.40;99.90;;;;;;5382387;26;20004;-83
2024/04/15 02:26:16;;;;;;;24.10;19.33;;;13.40;99.90;;;;;;5353418;26;20000;-83
2024/04/15 02:28:43;;;;;;;22.98;20.52;;;13.40;99.90;;;;;;5352590;26;20000;-83
2024/04/15 02:31:09;;;;;;;23.58;21.08;;;13.50;99.90;;;;;;5390833;26;20008;-83
2024/04/15 02:33:36;;;;;;;24.63;20.40;;;13.50;99.90;;;;;;5347332;26;19997;-84
2024/04/15 02:36:02;;;;;;;27.55;21.40;;;13.50;99.90;;;;;;5318361;26;20013;-83
2024/04/15 02:38:29;;;;;;;28.85;21.33;;;13.40;99.90;;;;;;5346705;26;20013;-84
2024/04/15 02:40:55;;;;;;;30.80;22.38;;;13.40;99.90;;;;;;5341628;26;20007;-83
2024/04/15 02:43:22;;;;;;;30.20;21.35;;;13.30;99.90;;;;;;5357042;26;20000;-84
2024/04/15 02:45:48;;;;;;;30.00;20.88;;;13.30;99.90;;;;;;5351545;26;20438;-84
2024/04/15 02:48:18;;;;;;;34.05;22.48;;;13.30;99.90;;;;;;5352732;26;20507;-82
2024/04/15 02:50:45;;;;;;;38.75;23.25;;;13.20;99.90;;;;;;5352646;26;20004;-83
2024/04/15 02:53:11;;;;;;;31.63;22.35;;;13.20;99.90;;;;;;5347206;26;20012;-84
2024/04/15 02:55:38;;;;;;;34.63;22.77;;;13.20;99.90;;;;;;5346844;26;20036;-84
2024/04/15 02:58:05;;;;;;;34.55;21.77;;;13.10;99.90;;;;;;5317891;26;20434;-83
2024/04/15 03:00:32;;;;;;;31.35;22.10;;;13.00;99.90;;;;;;5356860;26;20010;-83
2024/04/15 03:02:59;;;;;;;35.13;22.48;;;12.90;99.90;;;;;;5360731;26;20054;-84
2024/04/15 03:05:26;;;;;;;28.90;22.05;;;12.90;99.90;;;;;;5383867;26;20080;-83
2024/04/15 03:07:52;;;;;;;27.83;20.77;;;12.90;99.90;;;;;;5351999;26;20011;-83
2024/04/15 03:10:19;;;;;;;25.75;20.75;;;12.90;99.90;;;;;;5352469;26;20000;-82
2024/04/15 03:12:51;;;;;;;27.63;20.58;;;12.90;99.90;;;;;;5387017;26;20039;-83
2024/04/15 03:15:17;;;;;;;30.38;22.00;;;12.90;99.90;;;;;;5386368;26;20050;-84
2024/04/15 03:17:48;;;;;;;27.33;21.60;;;12.80;99.90;;;;;;5385579;26;20081;-83
2024/04/15 03:20:15;;;;;;;25.50;22.27;;;12.90;99.90;;;;;;5412558;26;20000;-82
2024/04/15 03:22:49;;;;;;;31.23;21.75;;;12.80;99.90;;;;;;5385838;26;20011;-82
2024/04/15 03:25:17;;;;;;;26.13;20.60;;;12.80;99.90;;;;;;5385894;26;19996;-82
2024/04/15 03:27:43;;;;;;;25.50;19.83;;;12.80;99.90;;;;;;5385639;26;20382;-83
2024/04/15 03:30:12;;;;;;;24.27;20.83;;;12.70;99.90;;;;;;5385490;26;20441;-82
2024/04/15 03:32:39;;;;;;;21.58;19.30;;;12.70;99.90;;;;;;5326690;26;20655;-81
2024/04/15 03:35:12;;;;;;;23.60;20.65;;;12.70;99.90;;;;;;5350446;26;20015;-82
2024/04/15 03:37:38;;;;;;;24.07;20.30;;;12.70;99.90;;;;;;5350659;26;20000;-84
2024/04/15 03:40:06;;;;;;;22.17;19.15;;;12.70;99.90;;;;;;5350516;26;20000;-82
2024/04/15 03:42:32;;;;;;;23.38;19.77;;;12.70;99.90;;;;;;5413257;26;20018;-83
2024/04/15 03:44:58;;;;;;;21.88;18.73;;;12.70;99.90;;;;;;5385467;26;20015;-83
2024/04/15 03:47:25;;;;;;;25.38;20.20;;;12.60;99.90;;;;;;5352477;26;19997;-83
2024/04/15 03:49:52;;;;;;;26.75;20.33;;;12.60;99.90;;;;;;5344715;26;20470;-82
2024/04/15 03:52:19;;;;;;;25.92;20.35;;;12.60;99.90;;;;;;5404613;26;20011;-84
2024/04/15 03:54:45;;;;;;;24.38;20.30;;;12.60;99.90;;;;;;5385409;26;20014;-86
2024/04/15 03:57:13;;;;;;;24.00;20.45;;;12.60;99.90;;;;;;5388343;26;20011;-84
2024/04/15 03:59:40;;;;;;;25.40;20.85;;;12.60;99.90;;;;;;5416954;26;20011;-82
2024/04/15 04:02:07;;;;;;;26.45;20.40;;;12.70;99.90;;;;;;5363718;26;20694;-82
2024/04/15 04:04:35;;;;;;;26.77;19.75;;;12.60;99.90;;;;;;5357768;26;20001;-82
2024/04/15 04:07:03;;;;;;;24.60;19.88;;;12.60;99.90;;;;;;5347813;26;20005;-82
2024/04/15 04:09:29;;;;;;;24.13;19.65;;;12.70;99.90;;;;;;5349336;26;20005;-82
2024/04/15 04:11:56;;;;;;;24.05;20.38;;;12.70;99.90;;;;;;5366282;26;20352;-82
2024/04/15 04:14:23;;;;;;;22.58;20.15;;;12.70;99.90;;;;;;5419883;26;20000;-83
2024/04/15 04:16:50;;;;;;;23.95;20.35;;;12.80;99.90;;;;;;5349571;26;20033;-82
2024/04/15 04:19:22;;;;;;;22.95;19.60;;;12.80;99.90;;;;;;5347770;26;20450;-84
2024/04/15 04:21:48;;;;;;;25.63;19.73;;;12.90;99.90;;;;;;5362432;26;20015;-85
2024/04/15 04:24:15;;;;;;;21.42;19.23;;;12.90;99.90;;;;;;5388881;26;20014;-85
2024/04/15 04:26:41;;;;;;;27.00;20.10;;;12.90;99.90;;;;;;5388662;26;20004;-85
2024/04/15 04:29:07;;;;;;;23.30;19.58;;;13.00;99.90;;;;;;5388826;26;20031;-84
2024/04/15 04:31:34;;;;;;;21.15;18.85;;;13.00;99.90;;;;;;5347738;26;20012;-85
2024/04/15 04:34:00;;;;;;;21.80;19.55;;;13.10;99.90;;;;;;5319182;26;20005;-84
2024/04/15 04:36:28;;;;;;;23.73;19.60;;;13.10;99.90;;;;;;5348083;26;20001;-85
2024/04/15 04:38:54;;;;;;;23.10;19.23;;;13.30;99.90;;;;;;5319188;26;19997;-85
2024/04/15 04:41:21;;;;;;;21.58;19.45;;;13.40;99.90;;;;;;5347686;26;20005;-83
2024/04/15 04:43:48;;;;;;;24.13;21.55;;;13.50;99.90;;;;;;5318680;26;20016;-85
2024/04/15 04:46:15;;;;;;;33.38;20.88;;;13.50;99.90;;;;;;5347774;26;20001;-84
2024/04/15 04:48:41;;;;;;;31.83;20.20;;;13.60;99.90;;;;;;5318885;26;20012;-84
2024/04/15 04:51:11;;;;;;;23.58;21.20;;;13.80;99.90;;;;;;5347663;26;20015;-84
2024/04/15 04:53:38;;;;;;;27.60;22.10;;;13.90;99.90;;;;;;5371856;26;20077;-85
2024/04/15 04:56:11;;;;;;;41.15;27.00;;;14.10;99.90;;;;;;5353519;26;20004;-85
2024/04/15 04:58:38;;;;;;;31.88;24.48;;;14.30;99.90;;;;;;5353117;26;20000;-85
2024/04/15 05:01:13;;;;;;;37.92;23.35;;;14.80;99.90;;;;;;5319376;26;20000;-85
2024/04/15 05:03:47;;;;;;;34.05;23.88;;;15.40;99.90;;;;;;5359316;26;20001;-84
2024/04/15 05:06:15;;;;;;;;;;;16.00;99.90;;;;;;5318830;26;20009;-82
2024/04/15 05:08:43;;;;;;;27.98;24.60;;;16.70;99.90;;;;;;5346097;26;20352;-83
2024/04/15 05:11:10;;;;;;;28.40;25.42;;;17.50;99.90;;;;;;5340023;26;20336;-83
2024/04/15 05:13:36;;;;;;;31.42;24.98;;;18.10;99.90;;;;;;5387888;26;20008;-86
2024/04/15 05:16:11;;;;;;;29.38;26.48;;;18.60;99.90;;;;;;5370585;26;20000;-85
2024/04/15 05:18:57;;;;;;;31.63;28.77;;;19.20;99.90;;;;;;5330402;26;20033;-85
2024/04/15 05:21:25;;;;;;;33.08;30.38;;;19.60;99.90;;;;;;5319092;26;20084;-84
2024/04/15 05:23:53;;;;;;;33.85;30.95;;;19.90;99.90;;;;;;5331486;26;20000;-85
2024/04/15 05:26:20;;;;;;;34.65;32.05;;;20.30;99.90;;;;;;5352553;26;20457;-85
2024/04/15 05:28:49;;;;;;;38.05;33.13;;;20.60;99.90;;;;;;5352301;26;20404;-85
2024/04/15 05:31:15;;;;;;;35.95;32.95;;;20.90;99.90;;;;;;5364163;26;20337;-85
2024/04/15 05:33:42;;;;;;;36.63;33.33;;;21.10;99.90;;;;;;5387368;26;20521;-84
2024/04/15 05:36:21;;;;;;;36.08;32.58;;;21.30;99.90;;;;;;5366928;26;20015;-84
2024/04/15 05:38:53;;;;;;;36.03;32.78;;;21.80;99.90;;;;;;5346303;26;20016;-84
2024/04/15 05:41:22;;;;;;;35.92;32.70;;;22.20;99.90;;;;;;5371634;26;20444;-84
2024/04/15 05:43:49;;;;;;;35.58;32.22;;;22.60;99.90;;;;;;5387245;26;20032;-84
2024/04/15 05:46:16;;;;;;;35.88;32.90;;;23.10;99.90;;;;;;5350981;26;20001;-85
2024/04/15 05:48:43;;;;;;;35.80;32.63;;;23.50;99.90;;;;;;5346939;26;20020;-85
2024/04/15 05:51:14;;;;;;;34.20;31.08;;;23.80;99.90;;;;;;5369476;26;20003;-86
2024/04/15 05:53:40;;;;;;;34.17;31.48;;;24.30;99.90;;;;;;5387257;26;20130;-85
2024/04/15 05:56:06;;;;;;;34.63;31.77;;;24.40;99.90;;;;;;5387089;26;20011;-85
2024/04/15 05:58:33;;;;;;;33.58;30.75;;;24.20;99.90;;;;;;5386896;26;20011;-85
2024/04/15 06:00:59;;;;;;;36.55;32.90;;;24.10;99.90;;;;;;5384777;26;20000;-83
2024/04/15 06:03:25;;;;;;;36.42;33.10;;;24.10;99.90;;;;;;5362923;26;20008;-84
2024/04/15 06:05:52;;;;;;;35.35;32.15;;;24.20;99.90;;;;;;5346718;26;20029;-85
2024/04/15 06:08:18;;;;;;;35.65;32.67;;;24.70;99.90;;;;;;5346350;26;20016;-85
2024/04/15 06:10:47;;;;;;;36.17;33.05;;;25.00;99.90;;;;;;5346181;26;20477;-85
2024/04/15 06:13:14;;;;;;;36.33;33.33;;;25.10;99.90;;;;;;5346668;26;20005;-84
2024/04/15 06:15:41;;;;;;;35.35;32.45;;;25.00;99.90;;;;;;5317198;26;20425;-83
2024/04/15 06:18:08;;;;;;;35.58;32.05;;;24.60;99.90;;;;;;5345967;26;20001;-81
2024/04/15 06:20:35;;;;;;;34.58;31.92;;;23.90;99.90;;;;;;5316779;26;20029;-83
2024/04/15 06:23:02;;;;;;;35.72;32.60;;;23.50;99.90;;;;;;5416623;26;20011;-83
2024/04/15 06:25:28;;;;;;;35.15;32.13;;;23.10;99.90;;;;;;5418178;26;19999;-84
2024/04/15 06:27:56;;;;;;;36.85;33.55;;;22.80;99.90;;;;;;5416332;26;20015;-84
2024/04/15 06:30:22;;;;;;;35.08;31.75;;;22.60;99.90;;;;;;5418008;26;20007;-83
2024/04/15 06:32:50;;;;;;;34.60;31.70;;;22.40;99.90;;;;;;5417934;26;20004;-82
2024/04/15 06:35:17;;;;;;;32.90;30.08;;;22.30;99.90;;;;;;5354518;26;19997;-86
2024/04/15 06:37:43;;;;;;;35.38;31.58;;;22.30;99.90;;;;;;5347905;26;20016;-85
2024/04/15 06:40:10;;;;;;;35.50;32.15;;;22.80;99.90;;;;;;5346303;26;20076;-86
2024/04/15 06:42:37;;;;;;;36.35;33.15;;;23.50;99.90;;;;;;5405749;26;20018;-86
2024/04/15 06:45:04;;;;;;;36.88;33.05;;;24.50;99.90;;;;;;5387080;26;20000;-87
2024/04/15 06:47:31;;;;;;;37.40;32.20;;;25.10;99.90;;;;;;5402005;26;20465;-87
2024/04/15 06:49:58;;;;;;;34.63;31.67;;;25.40;99.90;;;;;;5317865;26;20397;-87
2024/04/15 06:52:25;;;;;;;35.38;32.17;;;25.80;99.90;;;;;;5360089;26;19999;-87
2024/04/15 06:54:51;;;;;;;35.30;32.15;;;26.10;99.90;;;;;;5387258;26;19999;-86
2024/04/15 06:57:19;;;;;;;36.03;32.50;;;26.30;99.90;;;;;;5361943;26;20004;-86
2024/04/15 06:59:45;;;;;;;35.55;32.55;;;26.30;99.90;;;;;;5317280;26;20004;-87
2024/04/15 07:02:13;;;;;;;34.45;31.70;;;26.70;99.90;;;;;;5404500;26;19999;-88
2024/04/15 07:04:40;;;;;;;35.15;32.42;;;27.40;99.90;;;;;;5351854;26;20373;-88
2024/04/15 07:07:09;;;;;;;37.85;34.28;;;27.60;99.90;;;;;;5376024;26;20001;-88
2024/04/15 07:09:35;;;;;;;37.03;34.08;;;27.80;99.90;;;;;;5348266;26;20001;-88
2024/04/15 07:12:02;;;;;;;35.88;33.28;;;28.00;99.90;;;;;;5346442;26;20004;-88
2024/04/15 07:14:29;;;;;;;38.03;35.03;;;28.30;99.90;;;;;;5368601;26;20446;-87
2024/04/15 07:16:56;;;;;;;36.70;34.03;;;28.60;99.90;;;;;;5348157;26;20015;-88
2024/04/15 07:19:22;;;;;;;36.72;34.08;;;28.30;99.90;;;;;;5346016;26;20015;-87
2024/04/15 07:21:50;;;;;;;36.53;33.88;;;28.00;99.90;;;;;;5318048;26;20450;-87
2024/04/15 07:24:16;;;;;;;36.88;33.97;;;27.80;99.90;;;;;;5347901;26;20001;-87
2024/04/15 07:26:43;;;;;;;39.28;36.05;;;27.60;99.90;;;;;;5346455;26;20012;-88
2024/04/15 07:29:10;;;;;;;39.60;36.05;;;27.60;99.90;;;;;;5345636;26;20005;-84
2024/04/15 07:31:39;;;;;;;38.58;35.40;;;28.10;99.90;;;;;;5345303;26;20009;-87
2024/04/15 07:34:06;;;;;;;39.42;36.03;;;28.20;99.90;;;;;;5345806;26;20012;-86
2024/04/15 07:36:33;;;;;;;39.60;36.40;;;28.50;99.90;;;;;;5345674;26;20012;-85
2024/04/15 07:39:01;;;;;;;39.33;36.55;;;28.50;99.90;;;;;;5345546;26;19997;-87
2024/04/15 07:41:27;;;;;;;39.75;36.75;;;29.00;99.90;;;;;;5317232;26;20007;-86
2024/04/15 07:43:54;;;;;;;39.42;36.50;;;28.90;99.90;;;;;;5345254;26;20001;-87
2024/04/15 07:46:20;;;;;;;38.78;36.05;;;28.70;99.90;;;;;;5347230;26;20001;-87
2024/04/15 07:48:47;;;;;;;38.33;35.22;;;28.50;99.90;;;;;;5345879;26;20012;-88
2024/04/15 07:51:14;;;;;;;38.63;35.47;;;28.50;99.90;;;;;;5347216;26;20013;-85
2024/04/15 07:53:41;;;;;;;38.83;35.95;;;28.60;99.90;;;;;;5345328;26;20009;-85
2024/04/15 07:56:08;;;;;;;38.17;35.33;;;28.80;99.90;;;;;;5346919;26;20005;-84
2024/04/15 07:58:35;;;;;;;38.45;35.65;;;29.10;99.90;;;;;;5363773;26;20001;-86
2024/04/15 08:01:01;;;;;;;39.47;36.38;;;29.40;99.90;;;;;;5363662;26;20029;-87
2024/04/15 08:12:00;;;;;;;40.20;37.22;;;29.80;99.90;;;;;;5365474;26;20349;-88
2024/04/15 08:14:33;;;;;;;39.65;36.53;;;30.40;99.90;;;;;;5396592;26;20036;-89
2024/04/15 08:17:00;;;;;;;39.15;36.03;;;30.80;99.90;;;;;;5417265;26;20000;-88
2024/04/15 08:19:27;;;;;;;39.50;36.63;;;31.00;99.90;;;;;;5414284;26;19999;-87
2024/04/15 08:25:57;;;;;;;42.17;38.95;;;31.00;99.70;;;;;;5382313;26;20001;-88
2024/04/15 08:28:25;;;;;;;41.33;38.15;;;31.20;99.40;;;;;;5385682;26;20000;-89
2024/04/15 08:30:51;;;;;;;40.97;37.92;;;30.90;99.10;;;;;;5351021;26;20000;-84
2024/04/15 08:33:43;;;;;;;41.80;38.72;;;31.20;99.50;;;;;;5416087;26;20014;-84
2024/04/15 08:41:00;;;;;;;40.70;37.60;;;30.90;99.90;;;;;;5413334;26;20006;-83
2024/04/15 08:43:28;;;;;;;41.22;37.83;;;30.50;99.90;;;;;;5382170;26;20020;-84
2024/04/15 08:46:02;;;;;;;40.60;37.65;;;30.80;99.90;;;;;;5383883;26;20015;-84
2024/04/15 08:48:29;;;;;;;42.03;37.75;;;30.00;99.90;;;;;;5352418;26;19996;-84
2024/04/15 08:50:57;;;;;;;39.65;36.53;;;29.80;99.90;;;;;;5385303;26;20457;-84
2024/04/15 08:53:24;;;;;;;41.05;36.13;;;29.60;99.90;;;;;;5419469;26;20018;-85
2024/04/15 08:55:50;;;;;;;38.88;35.38;;;29.70;99.90;;;;;;5413063;26;19996;-86
2024/04/15 08:58:17;;;;;;;39.03;35.83;;;29.70;99.90;;;;;;5353231;26;20004;-85
2024/04/15 09:00:46;;;;;;;37.90;34.97;;;30.10;99.90;;;;;;5382209;26;20000;-86
2024/04/15 09:03:14;;;;;;;37.85;34.58;;;30.10;99.90;;;;;;5417281;26;20004;-85
2024/04/15 09:05:41;;;;;;;40.25;37.08;;;29.80;99.90;;;;;;5417755;26;20000;-85
2024/04/15 09:08:08;;;;;;;40.15;37.25;;;29.80;99.90;;;;;;5358466;26;20326;-85
2024/04/15 09:10:35;;;;;;;40.67;37.50;;;29.90;99.90;;;;;;5342633;26;20019;-85
2024/04/15 09:13:02;;;;;;;40.10;37.10;;;29.90;99.90;;;;;;5410263;26;20011;-85
2024/04/15 09:15:28;;;;;;;39.78;36.78;;;29.50;99.90;;;;;;5388096;26;19999;-85
2024/04/15 09:17:55;;;;;;;38.38;35.58;;;29.50;99.90;;;;;;5362583;26;19997;-85
2024/04/15 09:20:21;;;;;;;39.58;36.33;;;29.10;99.90;;;;;;5346901;26;19996;-85
2024/04/15 09:22:48;;;;;;;39.03;36.33;;;28.80;99.90;;;;;;5318549;26;20044;-85
2024/04/15 09:25:15;;;;;;;39.70;36.38;;;28.60;99.90;;;;;;5347156;26;20041;-85
2024/04/15 09:27:42;;;;;;;38.22;35.03;;;28.20;99.90;;;;;;5357578;26;19997;-84
2024/04/15 09:30:10;;;;;;;38.28;35.05;;;28.20;99.90;;;;;;5318390;26;20028;-84
2024/04/15 09:32:37;;;;;;;38.72;35.75;;;28.20;99.90;;;;;;5318486;26;20439;-85
2024/04/15 09:35:05;;;;;;;39.28;35.95;;;28.50;99.90;;;;;;5318249;26;20004;-85
2024/04/15 09:37:34;;;;;;;39.00;35.47;;;28.70;99.90;;;;;;5330742;26;20012;-85
2024/04/15 09:40:05;;;;;;;38.47;35.05;;;28.90;99.90;;;;;;5352918;26;20000;-85
2024/04/15 09:42:33;;;;;;;38.50;35.70;;;28.80;99.90;;;;;;5352918;26;20004;-84
2024/04/15 09:45:01;;;;;;;38.97;35.45;;;28.70;99.90;;;;;;5352746;26;20012;-84
2024/04/15 09:47:28;;;;;;;38.42;35.35;;;28.70;99.90;;;;;;5352499;26;20016;-84
2024/04/15 09:49:57;;;;;;;38.90;35.80;;;28.80;99.90;;;;;;5352997;26;20032;-84
2024/04/15 09:52:31;;;;;;;38.45;35.38;;;29.20;99.90;;;;;;5355670;26;20004;-84
2024/04/15 09:55:07;;;;;;;39.13;35.92;;;29.90;99.80;;;;;;5352443;26;20004;-83
2024/04/15 09:57:41;;;;;;;39.80;36.58;;;30.50;99.70;;;;;;5346235;26;20005;-84
2024/04/15 10:00:15;;;;;;;40.28;37.55;;;30.60;97.70;;;;;;5347420;26;20016;-84
2024/04/15 10:03:18;;;;;;;40.53;37.53;;;30.70;97.10;;;;;;5383932;26;20004;-85
2024/04/15 10:05:50;;;;;;;40.42;37.20;;;30.90;96.90;;;;;;5346735;26;20019;-84
2024/04/15 10:08:19;;;;;;;42.13;37.88;;;31.00;94.90;;;;;;5346344;26;20019;-85
2024/04/15 10:10:46;;;;;;;43.00;39.58;;;30.90;95.40;;;;;;5317559;26;20086;-85
2024/04/15 10:13:13;;;;;;;42.53;38.95;;;30.80;95.10;;;;;;5412305;26;20015;-85
2024/04/15 10:15:40;;;;;;;42.95;39.33;;;30.90;95.10;;;;;;5387354;26;20079;-84
2024/04/15 10:18:12;;;;;;;42.50;39.38;;;31.10;94.70;;;;;;5418366;26;20011;-84
2024/04/15 10:20:46;;;;;;;42.45;39.35;;;30.90;94.10;;;;;;5387434;26;20456;-84
2024/04/15 10:23:19;;;;;;;43.30;40.30;;;30.90;94.50;;;;;;5365359;26;20001;-84
2024/04/15 10:25:45;;;;;;;42.45;39.40;;;31.30;93.70;;;;;;5346521;26;19996;-85
2024/04/15 10:28:15;;;;;;;41.83;38.83;;;31.00;93.90;;;;;;5317359;26;20096;-85
2024/04/15 10:30:45;;;;;;;42.30;39.33;;;31.00;93.30;;;;;;5346223;26;20008;-84
2024/04/15 10:33:11;;;;;;;41.58;38.78;;;30.50;93.00;;;;;;5380188;26;20015;-85
2024/04/15 10:35:39;;;;;;;42.55;39.25;;;30.30;93.50;;;;;;5387316;26;20440;-85
2024/04/15 10:38:07;;;;;;;41.00;38.20;;;30.60;93.10;;;;;;5387311;26;20073;-84
2024/04/15 10:40:43;;;;;;;42.55;39.30;;;30.90;92.70;;;;;;5387037;26;20000;-86
2024/04/15 10:43:16;;;;;;;43.13;40.00;;;31.20;91.80;;;;;;5355616;26;19996;-85
2024/04/15 10:45:45;;;;;;;41.97;38.80;;;31.00;91.00;;;;;;5380249;26;19996;-86
2024/04/15 10:48:11;;;;;;;42.38;39.38;;;31.10;91.40;;;;;;5351947;26;20008;-86
2024/04/15 10:50:37;;;;;;;42.97;39.88;;;31.30;90.50;;;;;;5351595;26;20008;-85
2024/04/15 10:53:04;;;;;;;41.42;38.42;;;31.30;90.10;;;;;;5351837;26;20049;-85
2024/04/15 10:55:30;;;;;;;42.97;39.72;;;31.20;90.70;;;;;;5351719;26;20360;-85
2024/04/15 10:57:57;;;;;;;42.28;39.35;;;30.90;90.90;;;;;;5351811;26;20004;-86
2024/04/15 11:00:24;;;;;;;41.83;38.78;;;30.90;90.40;;;;;;5351766;26;20413;-86
2024/04/15 11:02:52;;;;;;;40.95;38.22;;;30.60;90.50;;;;;;5348756;26;20449;-86
2024/04/15 11:05:23;;;;;;;42.60;39.70;;;30.30;90.40;;;;;;5344524;26;20017;-86
2024/04/15 11:07:55;;;;;;;42.72;39.60;;;30.30;90.70;;;;;;5377870;26;20070;-86
2024/04/15 11:10:22;;;;;;;41.63;38.50;;;30.60;90.60;;;;;;5351549;26;20016;-85
2024/04/15 11:12:53;;;;;;;38.97;36.05;;;29.90;96.60;;;;;;5405853;26;20344;-85
2024/04/15 11:15:21;;;;;;;39.70;36.65;;;29.70;97.90;;;;;;5363333;26;20418;-85
2024/04/15 11:17:55;;;;;;;38.50;35.55;;;29.30;98.60;;;;;;5351525;26;20011;-85
2024/04/15 11:20:24;;;;;;;39.78;36.95;;;29.10;98.00;;;;;;5351197;26;20040;-85
2024/04/15 11:22:53;;;;;;;38.40;35.53;;;29.10;97.90;;;;;;5355636;26;20001;-85
2024/04/15 11:25:19;;;;;;;39.80;36.17;;;28.70;97.90;;;;;;5359428;26;20001;-85
2024/04/15 11:27:57;;;;;;;39.17;36.22;;;28.70;97.00;;;;;;5316678;26;20001;-85
2024/04/15 11:30:26;;;;;;;39.33;36.13;;;28.60;97.90;;;;;;5354576;26;20001;-86
2024/04/15 11:32:53;;;;;;;38.72;35.83;;;28.20;98.80;;;;;;5339608;26;20436;-85
2024/04/15 11:35:20;;;;;;;38.78;35.97;;;27.70;99.80;;;;;;5351259;26;20004;-86
2024/04/15 11:38:01;;;;;;;38.75;35.85;;;27.40;99.70;;;;;;5379663;26;20457;-83
2024/04/15 11:40:31;;;;;;;38.55;35.40;;;27.50;99.00;;;;;;5350747;26;20078;-84
2024/04/15 11:42:57;;;;;;;38.67;35.78;;;27.70;99.50;;;;;;5345909;26;20374;-84
2024/04/15 11:45:24;;;;;;;38.55;35.28;;;27.80;99.90;;;;;;5316069;26;20005;-85
2024/04/15 11:47:54;;;;;;;37.95;35.10;;;27.80;99.90;;;;;;5316442;26;20006;-85
2024/04/15 11:50:21;;;;;;;36.38;33.67;;;27.90;99.90;;;;;;5344336;26;20015;-84
2024/04/15 11:52:47;;;;;;;36.72;33.70;;;27.80;99.90;;;;;;5362576;26;19997;-84
2024/04/15 11:55:18;;;;;;;35.90;33.17;;;27.90;99.90;;;;;;5346285;26;20071;-84
2024/04/15 11:57:45;;;;;;;37.03;34.17;;;27.80;99.90;;;;;;5344596;26;20001;-85
2024/04/15 12:00:12;;;;;;;36.15;33.33;;;27.60;99.90;;;;;;5345106;26;20012;-84
2024/04/15 12:02:42;;;;;;;37.80;34.78;;;27.80;99.70;;;;;;5369995;26;20007;-84
2024/04/15 12:05:11;;;;;;;36.85;33.95;;;28.10;99.80;;;;;;5356071;26;20066;-84
2024/04/15 12:07:41;;;;;;;36.55;33.70;;;27.80;99.90;;;;;;5350251;26;20032;-85
2024/04/15 12:10:09;;;;;;;37.08;33.63;;;27.60;99.90;;;;;;5350250;26;20000;-84
2024/04/15 12:12:35;;;;;;;34.50;32.10;;;27.40;99.90;;;;;;5352753;26;20000;-84
2024/04/15 12:15:01;;;;;;;34.90;32.20;;;27.40;99.90;;;;;;5349338;26;20070;-83
2024/04/15 12:17:28;;;;;;;35.38;32.53;;;27.30;99.90;;;;;;5350350;26;20000;-84
2024/04/15 12:19:59;;;;;;;34.85;32.42;;;27.10;99.90;;;;;;5352475;26;20445;-84
2024/04/15 12:22:25;;;;;;;34.45;31.73;;;26.90;99.90;;;;;;5354760;26;20015;-82
2024/04/15 12:24:51;;;;;;;55.65;51.35;;;26.80;99.90;;;;;;5336341;26;19996;-82
2024/04/15 12:27:18;;;;;;;34.50;31.90;;;26.70;99.90;;;;;;5381563;26;19998;-85
2024/04/15 12:29:44;;;;;;;33.92;31.23;;;26.50;99.90;;;;;;5352656;26;20001;-80
2024/04/15 12:32:11;;;;;;;35.13;32.10;;;26.50;99.90;;;;;;5396404;26;20007;-81
2024/04/15 12:34:37;;;;;;;34.65;32.15;;;26.60;99.90;;;;;;5419777;26;19999;-83
2024/04/15 12:37:03;;;;;;;34.20;31.65;;;26.80;99.90;;;;;;5388706;26;20441;-84
2024/04/15 12:39:30;;;;;;;35.30;32.30;;;26.90;99.90;;;;;;5419543;26;20007;-82
2024/04/15 12:41:57;;;;;;;35.80;32.97;;;27.10;99.90;;;;;;5410068;26;20000;-82
2024/04/15 12:44:24;;;;;;;36.17;33.42;;;27.30;99.90;;;;;;5384053;26;19996;-87
2024/04/15 12:46:51;;;;;;;36.05;33.13;;;27.30;99.90;;;;;;5382528;26;20071;-85
2024/04/15 12:49:18;;;;;;;35.42;32.72;;;27.30;99.90;;;;;;5382842;26;20011;-84